Aeroporto :
LOGIN :

Iscrizione | Disclaimer

   EN    FR    IT 

 










Sommario :    VFR   VFR Marginale   IFR   IFR Intensivo   IFR Molto Intensivo
Visibilità : 
Base nubi : 
>= 8 km
>= 3000ft
5 / 8 km
1000 / 3000 ft
1500m / 5 km
500 / 1000 ft
800 / 1500m
200 / 500 ft
< 800m
< 200 ft
Simboli :   Temporali  Nebbia  Neve Forte  Precipitazioni Forti  Vento > 20 kt
SIGMETs :   Varie  Temporali  Ghiacco  Turbolenza  Onda orograficha  Ceneri Vulcaniche







- Altitudine del aeroporto : 453 ft
- Codice IATA : SBK
- Carte del aeroporto


LFRT - St Brieuc Armor

ULTIMO METAR :
  • 261130Z AUTO 02011KT 3200 BR OVC003 18/17 Q1021

METARs OBSOLETI :
  • 261100Z AUTO 03010KT 4300 BR OVC005 19/18 Q1021
  • 261030Z AUTO 02010KT 350V050 4000 BR OVC005 19/17 Q1021
  • 261000Z AUTO 04011KT 5000 BR BKN005 OVC150 19/17 Q1021
  • 260930Z AUTO 03010KT 4600 BR OVC004/// ///TCU 18/17 Q1021
  • 260900Z AUTO 03009KT 4600 BR OVC004 18/17 Q1021

Previsioni scadute.
Nessun NOTAM noto per questo aeroporto.



MetMap, La meteo Aeronautica in un colpo d'occhio ! - Copyright ORBIFLY Dicembre 2007 - Disclaimer

ORBIFLY MET'MAP TEAM :

Programmazione e sviluppo : Alexandra Zaïnal
Concezione e sviluppo : Baudouin d'Aumeries
Co-Programmazione e sviluppo : Marc-Olivier Méhu
Supporto tecnico e logistico : Manuel Goepfert
Aiuto per la traduzione : Arnaldo La Scala

Contatto : metmap@orbifly.com




FONTI E CREDITI :

   NOAA